sensor_id;sensor_type;location;lat;lon;timestamp;P1;durP1;ratioP1;P2;durP2;ratioP2
3563;SDS011;1796;52.388;13.096;2022-09-13T00:01:44;5.93;;;5.40;;
3563;SDS011;1796;52.388;13.096;2022-09-13T00:04:10;5.47;;;4.87;;
3563;SDS011;1796;52.388;13.096;2022-09-13T00:06:37;5.50;;;4.80;;
3563;SDS011;1796;52.388;13.096;2022-09-13T00:09:04;5.40;;;5.00;;
3563;SDS011;1796;52.388;13.096;2022-09-13T00:11:33;4.87;;;4.47;;
3563;SDS011;1796;52.388;13.096;2022-09-13T00:14:00;4.70;;;4.40;;
3563;SDS011;1796;52.388;13.096;2022-09-13T00:16:28;10.90;;;4.80;;
3563;SDS011;1796;52.388;13.096;2022-09-13T00:18:55;5.73;;;5.00;;
3563;SDS011;1796;52.388;13.096;2022-09-13T00:21:22;4.70;;;4.40;;
3563;SDS011;1796;52.388;13.096;2022-09-13T00:23:50;5.13;;;4.80;;
3563;SDS011;1796;52.388;13.096;2022-09-13T00:26:19;5.40;;;4.87;;
3563;SDS011;1796;52.388;13.096;2022-09-13T00:28:49;5.03;;;4.63;;
3563;SDS011;1796;52.388;13.096;2022-09-13T00:31:16;4.97;;;4.67;;
3563;SDS011;1796;52.388;13.096;2022-09-13T00:33:44;4.90;;;4.50;;
3563;SDS011;1796;52.388;13.096;2022-09-13T00:36:11;4.77;;;4.47;;
3563;SDS011;1796;52.388;13.096;2022-09-13T00:38:39;4.30;;;4.10;;
3563;SDS011;1796;52.388;13.096;2022-09-13T00:41:08;4.50;;;4.23;;
3563;SDS011;1796;52.388;13.096;2022-09-13T00:43:41;4.70;;;4.30;;
3563;SDS011;1796;52.388;13.096;2022-09-13T00:46:12;5.20;;;4.70;;
3563;SDS011;1796;52.388;13.096;2022-09-13T00:48:48;4.60;;;4.30;;
3563;SDS011;1796;52.388;13.096;2022-09-13T00:51:18;4.83;;;4.53;;
3563;SDS011;1796;52.388;13.096;2022-09-13T00:53:46;4.70;;;4.40;;
3563;SDS011;1796;52.388;13.096;2022-09-13T00:56:16;5.33;;;4.17;;
3563;SDS011;1796;52.388;13.096;2022-09-13T00:58:48;5.00;;;4.70;;
3563;SDS011;1796;52.388;13.096;2022-09-13T01:01:18;5.30;;;4.90;;
3563;SDS011;1796;52.388;13.096;2022-09-13T01:03:50;5.23;;;4.83;;
3563;SDS011;1796;52.388;13.096;2022-09-13T01:06:17;5.47;;;4.97;;
3563;SDS011;1796;52.388;13.096;2022-09-13T01:08:48;5.00;;;4.60;;
3563;SDS011;1796;52.388;13.096;2022-09-13T01:11:19;5.27;;;4.63;;
3563;SDS011;1796;52.388;13.096;2022-09-13T01:13:52;4.60;;;4.40;;
3563;SDS011;1796;52.388;13.096;2022-09-13T01:16:22;4.57;;;4.27;;
3563;SDS011;1796;52.388;13.096;2022-09-13T01:18:52;5.77;;;5.27;;
3563;SDS011;1796;52.388;13.096;2022-09-13T01:21:32;4.83;;;4.43;;
3563;SDS011;1796;52.388;13.096;2022-09-13T01:24:30;5.23;;;4.83;;
3563;SDS011;1796;52.388;13.096;2022-09-13T01:27:34;9.60;;;5.63;;
3563;SDS011;1796;52.388;13.096;2022-09-13T01:30:16;5.30;;;4.90;;
3563;SDS011;1796;52.388;13.096;2022-09-13T01:32:49;5.60;;;5.10;;
3563;SDS011;1796;52.388;13.096;2022-09-13T01:35:33;6.27;;;5.00;;
3563;SDS011;1796;52.388;13.096;2022-09-13T01:38:10;6.33;;;5.70;;
3563;SDS011;1796;52.388;13.096;2022-09-13T01:40:51;5.60;;;5.20;;
3563;SDS011;1796;52.388;13.096;2022-09-13T01:43:30;5.90;;;5.17;;
3563;SDS011;1796;52.388;13.096;2022-09-13T01:46:10;5.63;;;4.83;;
3563;SDS011;1796;52.388;13.096;2022-09-13T01:48:47;7.70;;;4.93;;
3563;SDS011;1796;52.388;13.096;2022-09-13T01:51:22;10.37;;;4.97;;
3563;SDS011;1796;52.388;13.096;2022-09-13T01:53:57;5.57;;;5.10;;
3563;SDS011;1796;52.388;13.096;2022-09-13T01:56:37;5.67;;;5.17;;
3563;SDS011;1796;52.388;13.096;2022-09-13T01:59:09;5.03;;;4.53;;
3563;SDS011;1796;52.388;13.096;2022-09-13T02:01:42;11.23;;;5.70;;
3563;SDS011;1796;52.388;13.096;2022-09-13T02:04:14;6.47;;;5.87;;
3563;SDS011;1796;52.388;13.096;2022-09-13T02:06:45;5.50;;;5.10;;
3563;SDS011;1796;52.388;13.096;2022-09-13T02:09:17;5.07;;;4.70;;
3563;SDS011;1796;52.388;13.096;2022-09-13T02:11:47;5.73;;;5.23;;
3563;SDS011;1796;52.388;13.096;2022-09-13T02:14:19;5.50;;;5.10;;
3563;SDS011;1796;52.388;13.096;2022-09-13T02:16:51;7.97;;;6.20;;
3563;SDS011;1796;52.388;13.096;2022-09-13T02:19:24;6.73;;;6.23;;
3563;SDS011;1796;52.388;13.096;2022-09-13T02:21:58;6.17;;;5.77;;
3563;SDS011;1796;52.388;13.096;2022-09-13T02:24:27;5.53;;;5.13;;
3563;SDS011;1796;52.388;13.096;2022-09-13T02:26:57;5.93;;;5.43;;
3563;SDS011;1796;52.388;13.096;2022-09-13T02:29:27;6.00;;;5.60;;
3563;SDS011;1796;52.388;13.096;2022-09-13T02:31:57;7.00;;;5.87;;
3563;SDS011;1796;52.388;13.096;2022-09-13T02:34:30;6.40;;;5.73;;
3563;SDS011;1796;52.388;13.096;2022-09-13T02:37:01;6.97;;;5.80;;
3563;SDS011;1796;52.388;13.096;2022-09-13T02:39:32;6.00;;;5.40;;
3563;SDS011;1796;52.388;13.096;2022-09-13T02:42:03;6.37;;;5.77;;
3563;SDS011;1796;52.388;13.096;2022-09-13T02:44:36;6.33;;;5.73;;
3563;SDS011;1796;52.388;13.096;2022-09-13T02:47:10;6.10;;;5.60;;
3563;SDS011;1796;52.388;13.096;2022-09-13T02:49:48;6.30;;;5.77;;
3563;SDS011;1796;52.388;13.096;2022-09-13T02:52:21;6.40;;;5.67;;
3563;SDS011;1796;52.388;13.096;2022-09-13T02:55:02;6.30;;;5.80;;
3563;SDS011;1796;52.388;13.096;2022-09-13T02:57:35;9.57;;;6.00;;
3563;SDS011;1796;52.388;13.096;2022-09-13T03:00:06;6.30;;;5.80;;
3563;SDS011;1796;52.388;13.096;2022-09-13T03:02:35;6.27;;;5.83;;
3563;SDS011;1796;52.388;13.096;2022-09-13T03:05:06;6.33;;;5.80;;
3563;SDS011;1796;52.388;13.096;2022-09-13T03:07:33;6.33;;;5.73;;
3563;SDS011;1796;52.388;13.096;2022-09-13T03:10:02;6.40;;;5.80;;
3563;SDS011;1796;52.388;13.096;2022-09-13T03:12:36;6.60;;;5.97;;
3563;SDS011;1796;52.388;13.096;2022-09-13T03:15:32;7.63;;;6.10;;
3563;SDS011;1796;52.388;13.096;2022-09-13T03:18:16;6.43;;;5.80;;
3563;SDS011;1796;52.388;13.096;2022-09-13T03:20:56;6.23;;;5.63;;
3563;SDS011;1796;52.388;13.096;2022-09-13T03:23:37;7.07;;;6.53;;
3563;SDS011;1796;52.388;13.096;2022-09-13T03:26:19;6.00;;;5.40;;
3563;SDS011;1796;52.388;13.096;2022-09-13T03:28:55;7.97;;;7.27;;
3563;SDS011;1796;52.388;13.096;2022-09-13T03:31:32;7.10;;;6.50;;
3563;SDS011;1796;52.388;13.096;2022-09-13T03:34:05;8.33;;;5.57;;
3563;SDS011;1796;52.388;13.096;2022-09-13T03:36:36;7.60;;;6.63;;
3563;SDS011;1796;52.388;13.096;2022-09-13T03:39:10;6.60;;;5.90;;
3563;SDS011;1796;52.388;13.096;2022-09-13T03:41:45;6.80;;;6.20;;
3563;SDS011;1796;52.388;13.096;2022-09-13T03:44:16;6.90;;;6.20;;
3563;SDS011;1796;52.388;13.096;2022-09-13T03:46:47;6.90;;;6.40;;
3563;SDS011;1796;52.388;13.096;2022-09-13T03:49:19;6.83;;;6.33;;
3563;SDS011;1796;52.388;13.096;2022-09-13T03:51:48;6.60;;;6.13;;
3563;SDS011;1796;52.388;13.096;2022-09-13T03:54:18;7.30;;;6.70;;
3563;SDS011;1796;52.388;13.096;2022-09-13T03:59:31;7.87;;;6.30;;
3563;SDS011;1796;52.388;13.096;2022-09-13T04:02:00;7.23;;;6.53;;
3563;SDS011;1796;52.388;13.096;2022-09-13T04:04:28;7.30;;;6.60;;
3563;SDS011;1796;52.388;13.096;2022-09-13T04:06:55;7.03;;;6.33;;
3563;SDS011;1796;52.388;13.096;2022-09-13T04:09:22;7.10;;;6.40;;
3563;SDS011;1796;52.388;13.096;2022-09-13T04:11:49;8.00;;;7.30;;
3563;SDS011;1796;52.388;13.096;2022-09-13T04:14:16;6.60;;;6.10;;
3563;SDS011;1796;52.388;13.096;2022-09-13T04:16:43;7.87;;;7.17;;
3563;SDS011;1796;52.388;13.096;2022-09-13T04:19:10;8.13;;;7.43;;
3563;SDS011;1796;52.388;13.096;2022-09-13T04:21:38;6.80;;;6.10;;
3563;SDS011;1796;52.388;13.096;2022-09-13T04:24:05;12.20;;;6.73;;
3563;SDS011;1796;52.388;13.096;2022-09-13T04:26:32;10.33;;;6.57;;
3563;SDS011;1796;52.388;13.096;2022-09-13T04:28:59;7.87;;;7.07;;
3563;SDS011;1796;52.388;13.096;2022-09-13T04:31:26;7.83;;;6.97;;
3563;SDS011;1796;52.388;13.096;2022-09-13T04:33:53;7.73;;;7.03;;
3563;SDS011;1796;52.388;13.096;2022-09-13T04:36:20;7.00;;;6.40;;
3563;SDS011;1796;52.388;13.096;2022-09-13T04:38:48;8.80;;;7.10;;
3563;SDS011;1796;52.388;13.096;2022-09-13T04:41:15;7.77;;;7.07;;
3563;SDS011;1796;52.388;13.096;2022-09-13T04:43:42;14.97;;;7.30;;
3563;SDS011;1796;52.388;13.096;2022-09-13T04:46:09;8.00;;;7.10;;
3563;SDS011;1796;52.388;13.096;2022-09-13T04:48:36;6.73;;;6.13;;
3563;SDS011;1796;52.388;13.096;2022-09-13T04:51:05;7.67;;;6.73;;
3563;SDS011;1796;52.388;13.096;2022-09-13T04:53:32;7.50;;;6.90;;
3563;SDS011;1796;52.388;13.096;2022-09-13T04:56:01;11.20;;;7.03;;
3563;SDS011;1796;52.388;13.096;2022-09-13T04:58:29;8.10;;;7.30;;
3563;SDS011;1796;52.388;13.096;2022-09-13T05:00:59;8.70;;;7.80;;
3563;SDS011;1796;52.388;13.096;2022-09-13T05:03:28;8.00;;;7.30;;
3563;SDS011;1796;52.388;13.096;2022-09-13T05:05:59;11.53;;;7.50;;
3563;SDS011;1796;52.388;13.096;2022-09-13T05:08:27;7.43;;;6.73;;
3563;SDS011;1796;52.388;13.096;2022-09-13T05:10:54;12.87;;;7.47;;
3563;SDS011;1796;52.388;13.096;2022-09-13T05:13:27;8.43;;;7.53;;
3563;SDS011;1796;52.388;13.096;2022-09-13T05:18:57;13.53;;;6.93;;
3563;SDS011;1796;52.388;13.096;2022-09-13T05:21:45;7.70;;;6.60;;
3563;SDS011;1796;52.388;13.096;2022-09-13T05:39:47;16.63;;;7.43;;
3563;SDS011;1796;52.388;13.096;2022-09-13T05:42:16;9.40;;;8.13;;
3563;SDS011;1796;52.388;13.096;2022-09-13T05:44:48;12.40;;;7.17;;
3563;SDS011;1796;52.388;13.096;2022-09-13T05:47:14;9.13;;;8.20;;
3563;SDS011;1796;52.388;13.096;2022-09-13T05:49:41;9.63;;;8.53;;
3563;SDS011;1796;52.388;13.096;2022-09-13T05:52:08;11.07;;;7.73;;
3563;SDS011;1796;52.388;13.096;2022-09-13T05:54:35;10.97;;;8.67;;
3563;SDS011;1796;52.388;13.096;2022-09-13T05:57:02;9.43;;;8.53;;
3563;SDS011;1796;52.388;13.096;2022-09-13T05:59:29;9.43;;;8.53;;
3563;SDS011;1796;52.388;13.096;2022-09-13T06:01:58;9.73;;;8.57;;
3563;SDS011;1796;52.388;13.096;2022-09-13T06:04:25;14.73;;;9.07;;
3563;SDS011;1796;52.388;13.096;2022-09-13T06:06:52;12.87;;;10.00;;
3563;SDS011;1796;52.388;13.096;2022-09-13T06:09:19;18.93;;;9.93;;
3563;SDS011;1796;52.388;13.096;2022-09-13T06:11:46;16.40;;;10.53;;
3563;SDS011;1796;52.388;13.096;2022-09-13T06:14:13;9.13;;;8.33;;
3563;SDS011;1796;52.388;13.096;2022-09-13T06:16:39;16.60;;;10.80;;
3563;SDS011;1796;52.388;13.096;2022-09-13T06:19:08;12.30;;;10.47;;
3563;SDS011;1796;52.388;13.096;2022-09-13T06:21:35;14.43;;;11.17;;
3563;SDS011;1796;52.388;13.096;2022-09-13T06:24:02;15.60;;;10.47;;
3563;SDS011;1796;52.388;13.096;2022-09-13T06:26:29;11.63;;;9.80;;
3563;SDS011;1796;52.388;13.096;2022-09-13T06:28:56;19.43;;;11.13;;
3563;SDS011;1796;52.388;13.096;2022-09-13T06:31:24;13.23;;;10.20;;
3563;SDS011;1796;52.388;13.096;2022-09-13T06:33:54;14.87;;;10.03;;
3563;SDS011;1796;52.388;13.096;2022-09-13T06:36:24;17.20;;;10.20;;
3563;SDS011;1796;52.388;13.096;2022-09-13T06:38:51;13.37;;;10.20;;
3563;SDS011;1796;52.388;13.096;2022-09-13T06:41:19;15.67;;;10.77;;
3563;SDS011;1796;52.388;13.096;2022-09-13T06:43:51;13.47;;;9.63;;
3563;SDS011;1796;52.388;13.096;2022-09-13T06:46:19;12.57;;;9.83;;
3563;SDS011;1796;52.388;13.096;2022-09-13T06:48:46;11.83;;;9.57;;
3563;SDS011;1796;52.388;13.096;2022-09-13T06:51:14;12.17;;;9.80;;
3563;SDS011;1796;52.388;13.096;2022-09-13T06:53:45;11.23;;;10.00;;
3563;SDS011;1796;52.388;13.096;2022-09-13T06:56:13;11.00;;;9.10;;
3563;SDS011;1796;52.388;13.096;2022-09-13T06:58:42;12.67;;;10.00;;
3563;SDS011;1796;52.388;13.096;2022-09-13T07:01:11;11.27;;;9.97;;
3563;SDS011;1796;52.388;13.096;2022-09-13T07:03:40;10.67;;;9.23;;
3563;SDS011;1796;52.388;13.096;2022-09-13T07:06:10;12.20;;;9.33;;
3563;SDS011;1796;52.388;13.096;2022-09-13T07:08:39;11.97;;;10.60;;
3563;SDS011;1796;52.388;13.096;2022-09-13T07:11:08;15.13;;;10.17;;
3563;SDS011;1796;52.388;13.096;2022-09-13T07:13:36;14.13;;;11.17;;
3563;SDS011;1796;52.388;13.096;2022-09-13T07:16:04;12.17;;;9.70;;
3563;SDS011;1796;52.388;13.096;2022-09-13T07:18:35;11.00;;;9.90;;
3563;SDS011;1796;52.388;13.096;2022-09-13T07:21:03;14.10;;;10.37;;
3563;SDS011;1796;52.388;13.096;2022-09-13T07:23:32;12.67;;;9.53;;
3563;SDS011;1796;52.388;13.096;2022-09-13T07:26:00;11.30;;;9.20;;
3563;SDS011;1796;52.388;13.096;2022-09-13T07:28:31;12.47;;;9.63;;
3563;SDS011;1796;52.388;13.096;2022-09-13T07:31:03;14.30;;;9.70;;
3563;SDS011;1796;52.388;13.096;2022-09-13T07:33:31;9.53;;;8.53;;
3563;SDS011;1796;52.388;13.096;2022-09-13T07:35:59;16.73;;;9.03;;
3563;SDS011;1796;52.388;13.096;2022-09-13T07:38:30;14.50;;;8.60;;
3563;SDS011;1796;52.388;13.096;2022-09-13T07:40:58;12.70;;;8.80;;
3563;SDS011;1796;52.388;13.096;2022-09-13T07:43:25;11.53;;;8.70;;
3563;SDS011;1796;52.388;13.096;2022-09-13T07:45:57;14.80;;;8.70;;
3563;SDS011;1796;52.388;13.096;2022-09-13T07:48:25;11.60;;;7.97;;
3563;SDS011;1796;52.388;13.096;2022-09-13T07:51:00;11.10;;;8.87;;
3563;SDS011;1796;52.388;13.096;2022-09-13T07:53:29;9.20;;;8.30;;
3563;SDS011;1796;52.388;13.096;2022-09-13T07:56:00;10.47;;;7.97;;
3563;SDS011;1796;52.388;13.096;2022-09-13T07:58:28;8.87;;;8.00;;
3563;SDS011;1796;52.388;13.096;2022-09-13T08:00:59;9.10;;;8.20;;
3563;SDS011;1796;52.388;13.096;2022-09-13T08:03:30;10.33;;;8.03;;
3563;SDS011;1796;52.388;13.096;2022-09-13T08:05:57;11.70;;;8.23;;
3563;SDS011;1796;52.388;13.096;2022-09-13T08:08:24;9.83;;;8.83;;
3563;SDS011;1796;52.388;13.096;2022-09-13T08:10:51;8.20;;;7.40;;
3563;SDS011;1796;52.388;13.096;2022-09-13T08:13:18;9.43;;;7.87;;
3563;SDS011;1796;52.388;13.096;2022-09-13T08:15:47;8.90;;;8.00;;
3563;SDS011;1796;52.388;13.096;2022-09-13T08:18:16;9.83;;;8.00;;
3563;SDS011;1796;52.388;13.096;2022-09-13T08:20:43;8.77;;;7.90;;
3563;SDS011;1796;52.388;13.096;2022-09-13T08:23:10;8.93;;;8.07;;
3563;SDS011;1796;52.388;13.096;2022-09-13T08:25:38;13.73;;;8.30;;
3563;SDS011;1796;52.388;13.096;2022-09-13T08:28:06;9.03;;;8.13;;
3563;SDS011;1796;52.388;13.096;2022-09-13T08:30:35;7.87;;;7.17;;
3563;SDS011;1796;52.388;13.096;2022-09-13T08:33:02;9.27;;;8.47;;
3563;SDS011;1796;52.388;13.096;2022-09-13T08:35:31;8.03;;;7.30;;
3563;SDS011;1796;52.388;13.096;2022-09-13T08:37:59;8.80;;;7.80;;
3563;SDS011;1796;52.388;13.096;2022-09-13T08:40:27;8.93;;;8.00;;
3563;SDS011;1796;52.388;13.096;2022-09-13T08:42:59;10.50;;;7.27;;
3563;SDS011;1796;52.388;13.096;2022-09-13T08:45:31;7.10;;;6.40;;
3563;SDS011;1796;52.388;13.096;2022-09-13T08:48:00;8.13;;;6.93;;
3563;SDS011;1796;52.388;13.096;2022-09-13T08:50:33;8.50;;;6.80;;
3563;SDS011;1796;52.388;13.096;2022-09-13T08:53:07;7.30;;;6.60;;
3563;SDS011;1796;52.388;13.096;2022-09-13T08:55:45;7.13;;;6.43;;
3563;SDS011;1796;52.388;13.096;2022-09-13T08:58:23;6.63;;;5.97;;
3563;SDS011;1796;52.388;13.096;2022-09-13T09:01:18;12.17;;;6.40;;
3563;SDS011;1796;52.388;13.096;2022-09-13T09:03:55;8.40;;;6.47;;
3563;SDS011;1796;52.388;13.096;2022-09-13T09:06:28;6.57;;;5.97;;
3563;SDS011;1796;52.388;13.096;2022-09-13T09:08:57;7.67;;;5.40;;
3563;SDS011;1796;52.388;13.096;2022-09-13T09:11:30;7.03;;;6.40;;
3563;SDS011;1796;52.388;13.096;2022-09-13T09:14:04;6.67;;;6.03;;
3563;SDS011;1796;52.388;13.096;2022-09-13T09:16:35;10.53;;;5.80;;
3563;SDS011;1796;52.388;13.096;2022-09-13T09:19:08;9.10;;;5.90;;
3563;SDS011;1796;52.388;13.096;2022-09-13T09:21:45;9.37;;;7.73;;
3563;SDS011;1796;52.388;13.096;2022-09-13T09:24:15;6.20;;;5.70;;
3563;SDS011;1796;52.388;13.096;2022-09-13T09:26:45;10.50;;;5.23;;
3563;SDS011;1796;52.388;13.096;2022-09-13T09:29:14;8.20;;;5.43;;
3563;SDS011;1796;52.388;13.096;2022-09-13T09:31:45;6.10;;;5.03;;
3563;SDS011;1796;52.388;13.096;2022-09-13T09:34:21;6.47;;;5.87;;
3563;SDS011;1796;52.388;13.096;2022-09-13T09:37:10;5.77;;;5.27;;
3563;SDS011;1796;52.388;13.096;2022-09-13T09:39:42;10.23;;;5.47;;
3563;SDS011;1796;52.388;13.096;2022-09-13T09:42:10;5.97;;;5.47;;
3563;SDS011;1796;52.388;13.096;2022-09-13T09:44:44;6.83;;;5.00;;
3563;SDS011;1796;52.388;13.096;2022-09-13T09:47:14;6.67;;;5.60;;
3563;SDS011;1796;52.388;13.096;2022-09-13T09:49:45;6.53;;;5.70;;
3563;SDS011;1796;52.388;13.096;2022-09-13T09:52:34;5.67;;;4.60;;
3563;SDS011;1796;52.388;13.096;2022-09-13T09:55:13;5.30;;;4.43;;
3563;SDS011;1796;52.388;13.096;2022-09-13T09:57:49;5.33;;;4.83;;
3563;SDS011;1796;52.388;13.096;2022-09-13T10:00:20;5.87;;;5.27;;
3563;SDS011;1796;52.388;13.096;2022-09-13T10:02:50;8.77;;;5.13;;
3563;SDS011;1796;52.388;13.096;2022-09-13T10:05:21;5.03;;;4.53;;
3563;SDS011;1796;52.388;13.096;2022-09-13T10:07:59;6.57;;;5.43;;
3563;SDS011;1796;52.388;13.096;2022-09-13T10:10:35;9.20;;;5.30;;
3563;SDS011;1796;52.388;13.096;2022-09-13T10:13:06;5.37;;;4.87;;
3563;SDS011;1796;52.388;13.096;2022-09-13T10:15:50;6.00;;;5.40;;
3563;SDS011;1796;52.388;13.096;2022-09-13T10:18:19;5.97;;;4.80;;
3563;SDS011;1796;52.388;13.096;2022-09-13T10:20:58;5.27;;;4.90;;
3563;SDS011;1796;52.388;13.096;2022-09-13T10:23:28;5.13;;;4.60;;
3563;SDS011;1796;52.388;13.096;2022-09-13T10:25:57;5.67;;;4.67;;
3563;SDS011;1796;52.388;13.096;2022-09-13T10:28:34;5.00;;;4.70;;
3563;SDS011;1796;52.388;13.096;2022-09-13T10:31:07;4.50;;;4.10;;
3563;SDS011;1796;52.388;13.096;2022-09-13T10:33:36;4.40;;;4.00;;
3563;SDS011;1796;52.388;13.096;2022-09-13T10:36:05;7.60;;;4.47;;
3563;SDS011;1796;52.388;13.096;2022-09-13T10:38:39;5.33;;;4.67;;
3563;SDS011;1796;52.388;13.096;2022-09-13T10:41:19;4.90;;;4.50;;
3563;SDS011;1796;52.388;13.096;2022-09-13T10:43:48;6.40;;;5.30;;
3563;SDS011;1796;52.388;13.096;2022-09-13T10:46:22;5.13;;;4.73;;
3563;SDS011;1796;52.388;13.096;2022-09-13T10:48:49;4.97;;;4.60;;
3563;SDS011;1796;52.388;13.096;2022-09-13T10:51:27;5.57;;;5.00;;
3563;SDS011;1796;52.388;13.096;2022-09-13T10:56:50;5.83;;;5.20;;
3563;SDS011;1796;52.388;13.096;2022-09-13T10:59:21;5.10;;;4.70;;
3563;SDS011;1796;52.388;13.096;2022-09-13T11:01:51;7.53;;;5.27;;
3563;SDS011;1796;52.388;13.096;2022-09-13T11:04:44;6.93;;;5.60;;
3563;SDS011;1796;52.388;13.096;2022-09-13T11:07:25;6.77;;;6.17;;
3563;SDS011;1796;52.388;13.096;2022-09-13T11:10:07;8.20;;;6.60;;
3563;SDS011;1796;52.388;13.096;2022-09-13T11:12:43;9.57;;;7.80;;
3563;SDS011;1796;52.388;13.096;2022-09-13T11:15:21;10.63;;;8.73;;
3563;SDS011;1796;52.388;13.096;2022-09-13T11:18:08;11.50;;;9.37;;
3563;SDS011;1796;52.388;13.096;2022-09-13T11:20:49;9.70;;;8.30;;
3563;SDS011;1796;52.388;13.096;2022-09-13T11:23:27;11.20;;;8.83;;
3563;SDS011;1796;52.388;13.096;2022-09-13T11:26:35;13.30;;;10.53;;
3563;SDS011;1796;52.388;13.096;2022-09-13T11:29:15;10.70;;;9.40;;
3563;SDS011;1796;52.388;13.096;2022-09-13T11:31:53;12.60;;;9.83;;
3563;SDS011;1796;52.388;13.096;2022-09-13T11:34:36;18.00;;;10.30;;
3563;SDS011;1796;52.388;13.096;2022-09-13T11:37:20;13.83;;;10.33;;
3563;SDS011;1796;52.388;13.096;2022-09-13T11:40:00;15.93;;;11.10;;
3563;SDS011;1796;52.388;13.096;2022-09-13T11:42:41;14.80;;;10.60;;
3563;SDS011;1796;52.388;13.096;2022-09-13T11:45:22;15.70;;;9.70;;
3563;SDS011;1796;52.388;13.096;2022-09-13T11:47:55;13.40;;;10.73;;
3563;SDS011;1796;52.388;13.096;2022-09-13T11:50:34;16.30;;;10.40;;
3563;SDS011;1796;52.388;13.096;2022-09-13T11:53:23;12.10;;;10.20;;
3563;SDS011;1796;52.388;13.096;2022-09-13T11:56:03;15.40;;;10.00;;
3563;SDS011;1796;52.388;13.096;2022-09-13T11:58:34;11.93;;;10.73;;
3563;SDS011;1796;52.388;13.096;2022-09-13T12:01:05;10.20;;;9.20;;
3563;SDS011;1796;52.388;13.096;2022-09-13T12:03:36;12.10;;;10.20;;
3563;SDS011;1796;52.388;13.096;2022-09-13T12:06:10;12.57;;;9.90;;
3563;SDS011;1796;52.388;13.096;2022-09-13T12:08:41;17.87;;;10.70;;
3563;SDS011;1796;52.388;13.096;2022-09-13T12:11:12;10.87;;;9.87;;
3563;SDS011;1796;52.388;13.096;2022-09-13T12:13:47;30.53;;;8.87;;
3563;SDS011;1796;52.388;13.096;2022-09-13T12:16:20;11.40;;;9.20;;
3563;SDS011;1796;52.388;13.096;2022-09-13T12:18:51;11.30;;;8.93;;
3563;SDS011;1796;52.388;13.096;2022-09-13T12:21:22;16.47;;;8.90;;
3563;SDS011;1796;52.388;13.096;2022-09-13T12:23:52;15.63;;;8.00;;
3563;SDS011;1796;52.388;13.096;2022-09-13T12:26:29;10.20;;;9.07;;
3563;SDS011;1796;52.388;13.096;2022-09-13T12:29:03;10.23;;;8.10;;
3563;SDS011;1796;52.388;13.096;2022-09-13T12:31:36;10.90;;;8.10;;
3563;SDS011;1796;52.388;13.096;2022-09-13T12:34:04;9.87;;;8.07;;
3563;SDS011;1796;52.388;13.096;2022-09-13T12:39:43;9.10;;;8.20;;
3563;SDS011;1796;52.388;13.096;2022-09-13T12:42:37;8.80;;;8.00;;
3563;SDS011;1796;52.388;13.096;2022-09-13T12:45:26;12.43;;;8.10;;
3563;SDS011;1796;52.388;13.096;2022-09-13T12:48:06;9.23;;;8.23;;
3563;SDS011;1796;52.388;13.096;2022-09-13T12:50:44;10.57;;;7.77;;
3563;SDS011;1796;52.388;13.096;2022-09-13T12:53:24;9.00;;;7.43;;
3563;SDS011;1796;52.388;13.096;2022-09-13T12:56:22;12.27;;;8.20;;
3563;SDS011;1796;52.388;13.096;2022-09-13T13:02:01;11.73;;;6.93;;
3563;SDS011;1796;52.388;13.096;2022-09-13T13:04:47;8.70;;;7.90;;
3563;SDS011;1796;52.388;13.096;2022-09-13T13:07:19;10.53;;;8.20;;
3563;SDS011;1796;52.388;13.096;2022-09-13T13:09:49;10.53;;;8.37;;
3563;SDS011;1796;52.388;13.096;2022-09-13T13:12:28;12.57;;;9.93;;
3563;SDS011;1796;52.388;13.096;2022-09-13T13:15:01;10.40;;;9.33;;
3563;SDS011;1796;52.388;13.096;2022-09-13T13:20:40;9.67;;;8.50;;
3563;SDS011;1796;52.388;13.096;2022-09-13T13:23:15;12.00;;;9.10;;
3563;SDS011;1796;52.388;13.096;2022-09-13T13:25:54;18.10;;;9.70;;
3563;SDS011;1796;52.388;13.096;2022-09-13T13:31:33;17.00;;;9.77;;
3563;SDS011;1796;52.388;13.096;2022-09-13T13:37:02;11.43;;;9.20;;
3563;SDS011;1796;52.388;13.096;2022-09-13T13:39:32;13.00;;;9.60;;
3563;SDS011;1796;52.388;13.096;2022-09-13T13:42:09;9.50;;;7.70;;
3563;SDS011;1796;52.388;13.096;2022-09-13T13:44:56;13.00;;;8.10;;
3563;SDS011;1796;52.388;13.096;2022-09-13T13:53:42;11.80;;;8.40;;
3563;SDS011;1796;52.388;13.096;2022-09-13T13:56:16;12.17;;;9.47;;
3563;SDS011;1796;52.388;13.096;2022-09-13T13:58:50;16.30;;;9.00;;
3563;SDS011;1796;52.388;13.096;2022-09-13T14:01:21;9.13;;;8.13;;
3563;SDS011;1796;52.388;13.096;2022-09-13T14:04:02;8.77;;;7.87;;
3563;SDS011;1796;52.388;13.096;2022-09-13T14:06:52;9.30;;;8.27;;
3563;SDS011;1796;52.388;13.096;2022-09-13T14:09:27;8.47;;;7.10;;
3563;SDS011;1796;52.388;13.096;2022-09-13T14:12:11;9.83;;;7.50;;
3563;SDS011;1796;52.388;13.096;2022-09-13T14:15:01;9.60;;;7.50;;
3563;SDS011;1796;52.388;13.096;2022-09-13T14:17:55;9.93;;;7.90;;
3563;SDS011;1796;52.388;13.096;2022-09-13T14:20:56;10.50;;;7.87;;
3563;SDS011;1796;52.388;13.096;2022-09-13T14:23:25;9.60;;;7.33;;
3563;SDS011;1796;52.388;13.096;2022-09-13T14:25:53;11.47;;;7.70;;
3563;SDS011;1796;52.388;13.096;2022-09-13T14:28:21;8.30;;;7.00;;
3563;SDS011;1796;52.388;13.096;2022-09-13T14:30:51;7.50;;;6.63;;
3563;SDS011;1796;52.388;13.096;2022-09-13T14:33:21;7.37;;;6.67;;
3563;SDS011;1796;52.388;13.096;2022-09-13T14:35:59;8.90;;;6.30;;
3563;SDS011;1796;52.388;13.096;2022-09-13T14:38:29;9.70;;;6.70;;
3563;SDS011;1796;52.388;13.096;2022-09-13T14:41:00;7.70;;;6.27;;
3563;SDS011;1796;52.388;13.096;2022-09-13T14:43:29;7.73;;;6.73;;
3563;SDS011;1796;52.388;13.096;2022-09-13T14:45:58;7.13;;;6.10;;
3563;SDS011;1796;52.388;13.096;2022-09-13T14:48:29;7.83;;;5.80;;
3563;SDS011;1796;52.388;13.096;2022-09-13T14:51:01;8.37;;;6.10;;
3563;SDS011;1796;52.388;13.096;2022-09-13T14:53:32;5.77;;;5.20;;
3563;SDS011;1796;52.388;13.096;2022-09-13T14:56:00;5.00;;;4.50;;
3563;SDS011;1796;52.388;13.096;2022-09-13T14:58:34;4.60;;;4.30;;
3563;SDS011;1796;52.388;13.096;2022-09-13T15:01:08;7.57;;;4.47;;
3563;SDS011;1796;52.388;13.096;2022-09-13T15:03:39;6.13;;;4.97;;
3563;SDS011;1796;52.388;13.096;2022-09-13T15:06:17;4.80;;;4.27;;
3563;SDS011;1796;52.388;13.096;2022-09-13T15:08:48;5.23;;;4.27;;
3563;SDS011;1796;52.388;13.096;2022-09-13T15:11:25;5.43;;;5.03;;
3563;SDS011;1796;52.388;13.096;2022-09-13T15:14:01;4.80;;;4.50;;
3563;SDS011;1796;52.388;13.096;2022-09-13T15:16:45;4.43;;;4.13;;
3563;SDS011;1796;52.388;13.096;2022-09-13T15:19:18;6.63;;;5.20;;
3563;SDS011;1796;52.388;13.096;2022-09-13T15:24:51;4.40;;;4.10;;
3563;SDS011;1796;52.388;13.096;2022-09-13T15:27:21;6.33;;;4.40;;
3563;SDS011;1796;52.388;13.096;2022-09-13T15:29:51;4.77;;;4.33;;
3563;SDS011;1796;52.388;13.096;2022-09-13T15:32:27;5.57;;;4.13;;
3563;SDS011;1796;52.388;13.096;2022-09-13T15:34:57;5.87;;;4.50;;
3563;SDS011;1796;52.388;13.096;2022-09-13T15:37:29;10.63;;;4.20;;
3563;SDS011;1796;52.388;13.096;2022-09-13T15:40:10;4.63;;;4.03;;
3563;SDS011;1796;52.388;13.096;2022-09-13T15:42:43;8.43;;;3.93;;
3563;SDS011;1796;52.388;13.096;2022-09-13T15:45:11;4.63;;;4.13;;
3563;SDS011;1796;52.388;13.096;2022-09-13T15:47:38;8.47;;;4.60;;
3563;SDS011;1796;52.388;13.096;2022-09-13T15:50:05;8.33;;;4.20;;
3563;SDS011;1796;52.388;13.096;2022-09-13T15:52:32;7.83;;;4.47;;
3563;SDS011;1796;52.388;13.096;2022-09-13T15:54:59;5.87;;;4.30;;
3563;SDS011;1796;52.388;13.096;2022-09-13T15:57:28;10.13;;;4.23;;
3563;SDS011;1796;52.388;13.096;2022-09-13T15:59:55;5.53;;;3.90;;
3563;SDS011;1796;52.388;13.096;2022-09-13T16:02:23;5.13;;;3.57;;
3563;SDS011;1796;52.388;13.096;2022-09-13T16:04:52;5.70;;;3.97;;
3563;SDS011;1796;52.388;13.096;2022-09-13T16:07:19;6.00;;;5.10;;
3563;SDS011;1796;52.388;13.096;2022-09-13T16:09:47;3.97;;;3.53;;
3563;SDS011;1796;52.388;13.096;2022-09-13T16:12:14;3.90;;;3.60;;
3563;SDS011;1796;52.388;13.096;2022-09-13T16:14:44;7.53;;;3.90;;
3563;SDS011;1796;52.388;13.096;2022-09-13T16:17:12;4.00;;;3.70;;